Time;durP1;ratioP1;P1;durP2;ratioP2;P2;SDS_P1;SDS_P2;PMS_P1;PMS_P2;Temp;Humidity;BMP_temperature;BMP_pressure;BME280_temperature;BME280_humidity;BME280_pressure;Samples;Min_cycle;Max_cycle;Signal;HPM_P1;HPM_P2
2023/08/28 00:02:03;;;;;;;5.03;3.45;;;;;;;18.69;100.00;99894.84;5095567;28;20035;-78
2023/08/28 00:04:29;;;;;;;4.90;3.38;;;;;;;18.68;100.00;99890.38;5095363;28;20063;-78
2023/08/28 00:06:54;;;;;;;4.47;3.50;;;;;;;18.68;100.00;99893.28;5094419;28;20032;-77
2023/08/28 00:09:19;;;;;;;5.32;3.30;;;;;;;18.65;100.00;99882.84;5096037;28;20032;-78
2023/08/28 00:11:45;;;;;;;3.67;2.53;;;;;;;18.63;100.00;99879.72;5096551;28;20110;-78
2023/08/28 00:14:10;;;;;;;6.90;2.55;;;;;;;18.59;100.00;99859.81;5096304;28;20028;-76
2023/08/28 00:16:36;;;;;;;2.97;2.58;;;;;;;18.59;100.00;99862.69;5077989;28;20035;-78
2023/08/28 00:19:02;;;;;;;4.18;3.10;;;;;;;18.62;100.00;99857.91;5096070;28;20461;-76
2023/08/28 00:21:28;;;;;;;3.35;2.67;;;;;;;18.64;100.00;99863.91;5094854;28;20026;-77
2023/08/28 00:23:54;;;;;;;3.40;2.80;;;;;;;18.65;100.00;99880.72;5096017;28;20106;-77
2023/08/28 00:26:19;;;;;;;4.25;2.63;;;;;;;18.63;100.00;99880.50;5095856;28;20448;-77
2023/08/28 00:28:44;;;;;;;3.53;2.40;;;;;;;18.58;100.00;99866.16;5095048;28;20032;-76
2023/08/28 00:31:10;;;;;;;6.57;2.88;;;;;;;18.58;100.00;99869.03;5094616;28;20032;-75
2023/08/28 00:33:35;;;;;;;3.22;2.60;;;;;;;18.48;100.00;99870.84;5094487;28;20376;-77
2023/08/28 00:36:00;;;;;;;3.25;2.42;;;;;;;18.47;100.00;99875.09;5094308;28;20038;-77
2023/08/28 00:38:26;;;;;;;6.47;2.95;;;;;;;18.44;100.00;99874.06;5093207;28;20043;-77
2023/08/28 00:40:51;;;;;;;4.25;3.15;;;;;;;18.42;100.00;99867.31;5076782;28;20032;-78
2023/08/28 00:43:17;;;;;;;4.47;2.97;;;;;;;18.52;100.00;99877.84;5093828;28;20058;-77
2023/08/28 00:45:43;;;;;;;7.05;2.92;;;;;;;18.47;100.00;99875.88;5094139;28;20533;-77
2023/08/28 00:48:14;;;;;;;4.63;2.92;;;;;;;18.47;100.00;99890.34;5094479;28;20078;-78
2023/08/28 00:50:39;;;;;;;3.33;2.78;;;;;;;18.48;100.00;99880.28;5096068;28;20453;-78
2023/08/28 00:53:05;;;;;;;5.10;2.92;;;;;;;18.48;100.00;99877.41;5097376;28;20031;-77
2023/08/28 00:55:32;;;;;;;2.97;2.67;;;;;;;18.48;100.00;99874.50;5097385;28;20038;-77
2023/08/28 00:57:57;;;;;;;3.53;2.83;;;;;;;18.46;100.00;99862.72;5094402;28;20031;-79
2023/08/28 01:00:23;;;;;;;2.92;2.60;;;;;;;18.51;100.00;99873.41;5094425;28;20423;-75
2023/08/28 01:02:49;;;;;;;5.40;2.40;;;;;;;18.48;100.00;99883.19;5095386;28;20062;-77
2023/08/28 01:05:15;;;;;;;3.80;2.90;;;;;;;18.49;100.00;99886.88;5095186;28;20027;-77
2023/08/28 01:07:55;;;;;;;4.00;2.67;;;;;;;18.51;100.00;99898.69;5093977;28;20039;-75
2023/08/28 01:10:34;;;;;;;4.60;2.75;;;;;;;18.51;100.00;99907.34;5076907;28;20027;-77
2023/08/28 01:13:17;;;;;;;5.65;2.65;;;;;;;18.52;100.00;99906.78;5093930;28;20028;-76
2023/08/28 01:15:43;;;;;;;4.47;2.75;;;;;;;18.47;100.00;99896.13;5093792;28;20039;-75
2023/08/28 01:18:09;;;;;;;3.20;2.70;;;;;;;18.36;100.00;99884.78;5076637;28;20081;-76
2023/08/28 01:20:35;;;;;;;5.68;2.50;;;;;;;18.39;100.00;99900.22;5094702;28;20061;-76
2023/08/28 01:23:40;;;;;;;5.07;2.85;;;;;;;18.37;100.00;99895.03;5095158;28;20032;-77
2023/08/28 01:26:05;;;;;;;3.83;2.58;;;;;;;18.35;100.00;99900.56;5093547;28;20081;-74
2023/08/28 01:28:31;;;;;;;3.72;2.88;;;;;;;18.36;100.00;99907.94;5092388;28;20071;-77
2023/08/28 01:30:57;;;;;;;7.22;2.80;;;;;;;18.30;100.00;99918.78;5091378;28;20028;-77
2023/08/28 01:33:22;;;;;;;5.15;3.15;;;;;;;18.36;100.00;99936.84;5091180;28;20412;-78
2023/08/28 01:36:33;;;;;;;2.67;2.40;;;;;;;18.32;100.00;99930.63;5092519;28;20454;-76
2023/08/28 01:39:04;;;;;;;6.35;2.75;;;;;;;18.28;100.00;99933.03;5085554;28;20048;-76
2023/08/28 01:41:30;;;;;;;3.80;2.60;;;;;;;18.27;100.00;99934.38;5092270;28;20016;-77
2023/08/28 01:44:01;;;;;;;5.80;3.00;;;;;;;18.29;100.00;99943.28;5091004;28;20529;-77
2023/08/28 01:46:28;;;;;;;5.35;2.72;;;;;;;18.31;100.00;99945.66;5092522;28;20024;-78
2023/08/28 01:48:54;;;;;;;2.78;2.58;;;;;;;18.26;100.00;99950.19;5093542;28;20051;-78
2023/08/28 01:51:20;;;;;;;3.25;2.70;;;;;;;18.09;100.00;99918.69;5091304;28;20393;-78
2023/08/28 01:53:49;;;;;;;4.53;2.60;;;;;;;18.20;100.00;99944.50;5092455;28;20028;-78
2023/08/28 01:56:16;;;;;;;4.22;2.45;;;;;;;18.18;100.00;99929.00;5092329;28;20024;-77
2023/08/28 01:58:44;;;;;;;3.88;2.60;;;;;;;18.03;100.00;99932.44;5092367;28;20047;-78
2023/08/28 02:01:10;;;;;;;4.88;2.83;;;;;;;17.94;100.00;99914.75;5092045;28;20027;-77
2023/08/28 02:03:38;;;;;;;4.18;2.58;;;;;;;18.04;100.00;99928.22;5092422;28;20020;-76
2023/08/28 02:06:04;;;;;;;5.57;2.75;;;;;;;18.05;100.00;99940.59;5094185;28;20107;-78
2023/08/28 02:08:29;;;;;;;3.60;2.90;;;;;;;18.07;100.00;99943.72;5096798;28;20058;-77
2023/08/28 02:10:55;;;;;;;10.43;2.78;;;;;;;17.85;100.00;99918.88;5098293;28;20028;-78
2023/08/28 02:13:21;;;;;;;4.60;2.33;;;;;;;18.02;100.00;99936.69;5094643;28;20088;-77
2023/08/28 02:15:46;;;;;;;4.43;2.80;;;;;;;18.02;100.00;99941.69;5094226;28;20487;-77
2023/08/28 02:18:11;;;;;;;7.60;2.70;;;;;;;17.98;100.00;99933.34;5094145;28;20028;-77
2023/08/28 02:20:37;;;;;;;3.25;2.50;;;;;;;18.02;100.00;99930.91;5094263;28;20384;-78
2023/08/28 02:23:02;;;;;;;4.05;2.83;;;;;;;17.98;100.00;99921.03;5094084;28;20081;-78
2023/08/28 02:25:27;;;;;;;6.22;3.35;;;;;;;18.00;100.00;99924.13;5094215;28;20473;-78
2023/08/28 02:27:53;;;;;;;3.33;2.45;;;;;;;17.94;100.00;99921.31;5093919;28;20020;-76
2023/08/28 02:30:18;;;;;;;2.85;2.58;;;;;;;17.87;100.00;99924.88;5093449;28;20357;-77
2023/08/28 02:32:47;;;;;;;4.05;2.70;;;;;;;17.83;100.00;99930.97;5092436;28;20491;-77
2023/08/28 02:35:12;;;;;;;4.63;2.90;;;;;;;17.86;100.00;99934.88;5092519;28;20107;-79
2023/08/28 02:37:38;;;;;;;3.38;3.05;;;;;;;17.91;100.00;99936.13;5093230;28;20123;-76
2023/08/28 02:40:05;;;;;;;3.03;2.72;;;;;;;17.94;100.00;99938.69;5094068;28;20036;-77
2023/08/28 02:42:30;;;;;;;3.25;2.95;;;;;;;17.97;100.00;99923.13;5093554;28;20066;-79
2023/08/28 02:44:55;;;;;;;4.75;2.67;;;;;;;17.90;100.00;99912.22;5092337;28;20051;-78
2023/08/28 02:47:22;;;;;;;7.93;3.00;;;;;;;17.93;100.00;99937.09;5092444;28;20028;-78
2023/08/28 02:49:47;;;;;;;4.47;2.92;;;;;;;17.91;100.00;99939.00;5093808;28;20091;-77
2023/08/28 02:52:13;;;;;;;6.80;2.80;;;;;;;17.89;100.00;99928.00;5093268;28;20473;-77
2023/08/28 02:54:38;;;;;;;7.65;3.58;;;;;;;17.93;100.00;99930.56;5092668;28;20028;-77
2023/08/28 02:57:04;;;;;;;5.43;2.75;;;;;;;17.79;100.00;99906.63;5075484;28;20095;-77
2023/08/28 02:59:30;;;;;;;4.40;2.83;;;;;;;17.93;100.00;99940.00;5075080;28;20021;-78
2023/08/28 03:01:55;;;;;;;4.78;3.13;;;;;;;17.97;100.00;99951.25;5092847;28;20024;-77
2023/08/28 03:04:21;;;;;;;6.38;2.80;;;;;;;17.96;100.00;99950.47;5093685;28;20031;-78
2023/08/28 03:06:46;;;;;;;6.32;2.85;;;;;;;18.01;100.00;99943.03;5093248;28;20027;-77
2023/08/28 03:09:14;;;;;;;4.88;3.25;;;;;;;17.98;100.00;99944.91;5092016;28;20024;-78
2023/08/28 03:11:40;;;;;;;4.47;2.80;;;;;;;18.03;100.00;99937.47;5093325;28;20024;-77
2023/08/28 03:14:07;;;;;;;5.15;2.58;;;;;;;18.03;100.00;99925.91;5093433;28;20376;-77
2023/08/28 03:16:33;;;;;;;4.82;2.80;;;;;;;18.06;100.00;99924.81;5093215;28;20354;-77
2023/08/28 03:18:58;;;;;;;4.07;2.67;;;;;;;17.98;100.00;99924.66;5093117;28;20046;-76
2023/08/28 03:21:24;;;;;;;3.97;3.00;;;;;;;18.04;100.00;99944.81;5093307;28;20044;-77
2023/08/28 03:23:49;;;;;;;4.40;2.70;;;;;;;18.06;100.00;99945.03;5093301;28;20024;-76
2023/08/28 03:26:15;;;;;;;3.30;2.40;;;;;;;18.04;100.00;99948.47;5093147;28;20028;-77
2023/08/28 03:28:40;;;;;;;4.63;2.70;;;;;;;18.03;100.00;99946.16;5093233;28;20020;-75
2023/08/28 03:31:05;;;;;;;5.95;3.20;;;;;;;18.01;100.00;99946.72;5093963;28;20032;-78
2023/08/28 03:33:31;;;;;;;4.97;3.00;;;;;;;18.02;100.00;99954.06;5091782;28;20101;-75
2023/08/28 03:35:59;;;;;;;4.90;2.47;;;;;;;18.02;100.00;99956.94;5091482;28;20028;-77
2023/08/28 03:38:24;;;;;;;3.65;2.90;;;;;;;17.98;100.00;99949.94;5093378;28;20036;-76
2023/08/28 03:40:50;;;;;;;4.10;2.60;;;;;;;17.95;100.00;99954.69;5093318;28;20373;-76
2023/08/28 03:43:18;;;;;;;2.80;2.20;;;;;;;17.89;100.00;99956.13;5094919;28;20365;-77
2023/08/28 03:45:43;;;;;;;5.15;2.53;;;;;;;17.86;100.00;99957.25;5096770;28;20031;-75
2023/08/28 03:48:09;;;;;;;5.97;2.50;;;;;;;17.82;100.00;99967.03;5096837;28;20020;-77
2023/08/28 03:50:34;;;;;;;3.20;2.22;;;;;;;17.78;100.00;99972.31;5096509;28;20453;-75
2023/08/28 03:53:01;;;;;;;5.57;2.50;;;;;;;17.77;100.00;99978.69;5095350;28;20028;-77
2023/08/28 03:55:29;;;;;;;4.28;2.60;;;;;;;17.75;100.00;99984.22;5095409;28;20101;-77
2023/08/28 03:58:02;;;;;;;3.35;2.80;;;;;;;17.78;100.00;99989.66;5078697;28;20069;-77
2023/08/28 04:00:27;;;;;;;3.20;2.17;;;;;;;17.79;100.00;99991.22;5095606;28;20031;-76
2023/08/28 04:02:53;;;;;;;3.30;2.40;;;;;;;17.79;100.00;99984.66;5096405;28;20462;-77
2023/08/28 04:05:19;;;;;;;8.32;2.92;;;;;;;17.77;100.00;99982.34;5096402;28;20032;-77
2023/08/28 04:07:44;;;;;;;5.28;3.08;;;;;;;17.77;100.00;99988.13;5096386;28;20103;-78
2023/08/28 04:10:10;;;;;;;4.45;3.15;;;;;;;17.73;100.00;99996.31;5096373;28;20061;-75
2023/08/28 04:12:36;;;;;;;6.40;2.55;;;;;;;17.76;100.00;99997.34;5096351;28;20089;-78
2023/08/28 04:15:03;;;;;;;4.70;2.95;;;;;;;17.80;100.00;100018.81;5078414;28;20103;-76
2023/08/28 04:17:29;;;;;;;6.20;2.85;;;;;;;17.83;100.00;100026.38;5096227;28;20039;-78
2023/08/28 04:19:55;;;;;;;3.35;2.53;;;;;;;17.90;100.00;100029.97;5094645;28;20020;-77
2023/08/28 04:22:21;;;;;;;6.30;2.90;;;;;;;17.93;100.00;100023.09;5096438;28;20035;-77
2023/08/28 04:24:50;;;;;;;5.85;2.97;;;;;;;17.75;100.00;99985.00;5096397;28;20067;-76
2023/08/28 04:27:15;;;;;;;4.45;2.78;;;;;;;17.93;100.00;100006.50;5095864;28;20440;-76
2023/08/28 04:29:41;;;;;;;5.10;2.53;;;;;;;17.93;100.00;100011.53;5095919;28;20012;-77
2023/08/28 04:32:06;;;;;;;4.20;2.75;;;;;;;17.93;100.00;100005.75;5095868;28;20024;-77
2023/08/28 04:34:32;;;;;;;5.43;2.90;;;;;;;17.89;100.00;100006.06;5094597;28;20484;-77
2023/08/28 04:36:57;;;;;;;7.82;3.25;;;;;;;17.81;100.00;99994.38;5094598;28;20051;-77
2023/08/28 04:39:23;;;;;;;10.13;3.17;;;;;;;17.88;100.00;100001.63;5095687;28;20511;-77
2023/08/28 04:41:54;;;;;;;4.93;3.10;;;;;;;17.89;100.00;100005.28;5094733;28;20028;-76
2023/08/28 04:44:20;;;;;;;3.28;2.88;;;;;;;17.82;100.00;99987.25;5096573;28;20027;-76
2023/08/28 04:46:46;;;;;;;5.68;2.70;;;;;;;17.89;100.00;99987.91;5099440;28;20031;-76
2023/08/28 04:49:11;;;;;;;4.32;2.78;;;;;;;17.90;100.00;99983.69;5104114;28;20024;-79
2023/08/28 04:51:37;;;;;;;3.58;2.95;;;;;;;17.93;100.00;99977.59;5115536;28;20008;-78
2023/08/28 04:54:02;;;;;;;3.47;2.67;;;;;;;17.90;100.00;99970.03;5118713;28;20044;-77
2023/08/28 04:56:28;;;;;;;6.05;3.60;;;;;;;18.01;100.00;99981.41;5119209;28;20015;-78
2023/08/28 04:58:53;;;;;;;5.03;3.08;;;;;;;18.02;100.00;99977.19;5107165;28;20366;-77
2023/08/28 05:01:21;;;;;;;4.45;3.00;;;;;;;18.17;100.00;100000.56;5094972;28;20046;-77
2023/08/28 05:03:47;;;;;;;5.43;3.13;;;;;;;18.26;100.00;99993.56;5095317;28;20066;-77
2023/08/28 05:06:12;;;;;;;4.55;2.78;;;;;;;18.18;100.00;100001.31;5095329;28;20020;-77
2023/08/28 05:08:39;;;;;;;3.13;2.83;;;;;;;18.16;100.00;100001.13;5077585;28;20020;-78
2023/08/28 05:11:05;;;;;;;7.53;3.03;;;;;;;18.18;100.00;99996.31;5077059;28;20118;-78
2023/08/28 05:13:32;;;;;;;5.47;3.30;;;;;;;18.23;100.00;100009.13;5095393;28;20104;-78
2023/08/28 05:15:57;;;;;;;3.45;2.72;;;;;;;18.20;100.00;100004.47;5094133;28;20059;-80
2023/08/28 05:18:23;;;;;;;4.68;2.97;;;;;;;18.20;100.00;100011.03;5078327;28;20051;-78
2023/08/28 05:20:51;;;;;;;4.68;3.33;;;;;;;18.23;100.00;100017.81;5095145;28;20016;-80
2023/08/28 05:23:16;;;;;;;5.60;2.50;;;;;;;18.11;100.00;100013.56;5095366;28;20020;-77
2023/08/28 05:25:44;;;;;;;5.47;2.85;;;;;;;18.09;100.00;100022.78;5094862;28;20099;-79
2023/08/28 05:28:09;;;;;;;5.18;2.85;;;;;;;18.00;100.00;100019.53;5095290;28;20023;-80
2023/08/28 05:30:36;;;;;;;8.98;3.45;;;;;;;18.02;100.00;100026.34;5094871;28;20024;-81
2023/08/28 05:33:02;;;;;;;6.85;3.80;;;;;;;18.01;100.00;100019.00;5093152;28;20394;-80
2023/08/28 05:35:29;;;;;;;7.03;3.05;;;;;;;17.94;100.00;100007.28;5095263;28;20028;-81
2023/08/28 05:37:56;;;;;;;4.43;2.80;;;;;;;18.13;100.00;100031.13;5094437;28;20145;-75
2023/08/28 05:40:22;;;;;;;5.07;2.90;;;;;;;18.12;100.00;100038.28;5094972;28;20136;-75
2023/08/28 05:42:48;;;;;;;3.92;2.47;;;;;;;18.16;100.00;100041.63;5093302;28;20410;-73
2023/08/28 05:45:15;;;;;;;4.30;2.80;;;;;;;18.17;100.00;100029.50;5094423;28;20476;-74
2023/08/28 05:47:41;;;;;;;4.40;2.88;;;;;;;18.30;100.00;100025.06;5094693;28;20042;-76
2023/08/28 05:50:07;;;;;;;4.18;2.72;;;;;;;18.38;100.00;100017.28;5093129;28;20465;-73
2023/08/28 05:52:32;;;;;;;4.68;2.35;;;;;;;18.67;100.00;100019.13;5094033;28;20032;-72
2023/08/28 05:54:58;;;;;;;6.03;2.88;;;;;;;18.69;100.00;100014.31;5091053;28;20026;-74
2023/08/28 05:57:23;;;;;;;7.45;2.40;;;;;;;18.74;100.00;99997.38;5090690;28;20075;-72
2023/08/28 05:59:50;;;;;;;3.58;2.47;;;;;;;18.81;100.00;100002.50;5073698;28;20486;-72
2023/08/28 06:02:16;;;;;;;3.03;2.28;;;;;;;18.89;100.00;99997.59;5092156;28;20032;-74
2023/08/28 06:04:45;;;;;;;4.30;2.22;;;;;;;18.77;100.00;99978.91;5090473;28;20082;-73
2023/08/28 06:07:10;;;;;;;4.50;2.40;;;;;;;19.20;100.00;100010.38;5091625;28;20028;-71
2023/08/28 06:09:36;;;;;;;2.60;2.20;;;;;;;19.48;100.00;99996.81;5093233;28;20020;-73
2023/08/28 06:12:01;;;;;;;6.32;2.53;;;;;;;19.64;100.00;99994.06;5094102;28;20024;-71
2023/08/28 06:14:27;;;;;;;2.95;2.33;;;;;;;19.80;100.00;100010.28;5092601;28;20158;-72
2023/08/28 06:16:53;;;;;;;2.83;2.42;;;;;;;19.80;100.00;100004.47;5092697;28;20206;-72
2023/08/28 06:19:18;;;;;;;5.18;3.65;;;;;;;19.76;100.00;100010.59;5093896;28;20165;-73
2023/08/28 06:21:45;;;;;;;4.00;2.28;;;;;;;19.76;100.00;100004.81;5093892;28;20487;-72
2023/08/28 06:24:13;;;;;;;4.80;2.30;;;;;;;19.84;100.00;99999.09;5092649;28;20016;-75
2023/08/28 06:26:41;;;;;;;34.00;9.75;;;;;;;20.02;100.00;99985.75;5093625;28;20488;-72
2023/08/28 06:29:06;;;;;;;4.35;2.45;;;;;;;20.02;100.00;99963.31;5106020;28;20020;-73
2023/08/28 06:31:32;;;;;;;3.58;2.22;;;;;;;20.12;100.00;99960.69;5110454;28;20034;-74
2023/08/28 06:33:58;;;;;;;3.30;2.30;;;;;;;20.07;100.00;99952.91;5113278;28;20085;-72
2023/08/28 06:36:26;;;;;;;5.78;3.03;;;;;;;20.16;100.00;99958.97;5113300;28;20438;-71
2023/08/28 06:38:52;;;;;;;3.22;2.25;;;;;;;20.20;100.00;99941.97;5112450;28;20036;-75
2023/08/28 06:41:18;;;;;;;2.13;2.00;;;;;;;20.14;100.00;99921.06;5112391;28;20030;-77
2023/08/28 06:43:47;;;;;;;5.03;2.65;;;;;;;20.12;100.00;99912.13;5113880;28;20039;-77
2023/08/28 06:46:21;;;;;;;3.45;2.42;;;;;;;20.07;100.00;99918.09;5112356;28;20103;-77
2023/08/28 06:48:48;;;;;;;3.55;2.35;;;;;;;20.00;100.00;99899.31;5115223;28;20036;-80
2023/08/28 06:51:13;;;;;;;6.03;2.67;;;;;;;20.00;100.00;99887.69;5103343;28;20080;-79
2023/08/28 06:53:39;;;;;;;7.35;2.42;;;;;;;19.90;100.00;99864.22;5092792;28;20044;-76
2023/08/28 06:56:05;;;;;;;5.30;2.42;;;;;;;19.94;100.00;99876.25;5108992;28;20028;-76
2023/08/28 06:58:31;;;;;;;5.68;2.47;;;;;;;19.88;100.00;99900.91;5106198;28;20081;-79
2023/08/28 07:00:59;;;;;;;6.97;2.85;;;;;;;19.74;100.00;99894.44;5113216;28;20024;-78
2023/08/28 07:03:24;;;;;;;6.53;3.22;;;;;;;19.72;100.00;99899.22;5113315;28;20024;-80
2023/08/28 07:05:49;;;;;;;3.42;2.75;;;;;;;19.60;100.00;99904.56;5113249;28;20379;-77
2023/08/28 07:08:16;;;;;;;3.95;2.35;;;;;;;19.61;100.00;99906.09;5112231;28;20019;-76
2023/08/28 07:10:44;;;;;;;5.22;2.42;;;;;;;19.63;100.00;99909.22;5091951;28;20108;-80
2023/08/28 07:13:11;;;;;;;4.53;2.85;;;;;;;19.64;100.00;99912.88;5112623;28;20063;-76
2023/08/28 07:15:36;;;;;;;5.47;2.40;;;;;;;19.66;100.00;99918.91;5112917;27;20066;-75
2023/08/28 07:18:03;;;;;;;3.13;2.47;;;;;;;19.67;100.00;99917.53;5114676;28;20073;-80
2023/08/28 07:20:28;;;;;;;7.30;2.95;;;;;;;19.75;100.00;99927.88;5117246;28;20059;-80
2023/08/28 07:22:53;;;;;;;6.75;2.50;;;;;;;19.80;100.00;99947.25;5117248;28;20428;-78
2023/08/28 07:25:22;;;;;;;5.18;3.00;;;;;;;19.82;100.00;99944.56;5116777;27;20120;-81
2023/08/28 07:27:48;;;;;;;8.05;2.60;;;;;;;19.77;100.00;99938.91;5116307;28;20026;-81
2023/08/28 07:30:14;;;;;;;4.25;2.40;;;;;;;19.76;100.00;99940.22;5117163;28;20384;-81
2023/08/28 07:32:40;;;;;;;5.80;2.72;;;;;;;19.68;100.00;99948.88;5117039;28;20024;-82
2023/08/28 07:35:06;;;;;;;6.68;2.80;;;;;;;19.57;100.00;99971.56;5115547;28;20085;-81
2023/08/28 07:37:33;;;;;;;3.38;2.58;;;;;;;19.37;100.00;99985.47;5116627;28;20047;-80
2023/08/28 07:39:59;;;;;;;3.42;2.20;;;;;;;19.31;100.00;99986.97;5097594;28;20117;-81
2023/08/28 07:42:24;;;;;;;5.22;2.70;;;;;;;19.24;100.00;100002.13;5115494;28;20032;-83
2023/08/28 07:44:50;;;;;;;6.95;2.92;;;;;;;19.32;100.00;100014.56;5115466;28;20093;-79
2023/08/28 07:47:16;;;;;;;6.93;3.22;;;;;;;19.41;100.00;100022.81;5116471;28;20076;-81
2023/08/28 07:49:42;;;;;;;6.35;3.17;;;;;;;19.43;100.00;100038.28;5098115;27;20023;-82
2023/08/28 07:52:07;;;;;;;6.57;3.15;;;;;;;19.41;100.00;100034.41;5116349;28;20066;-79
2023/08/28 07:54:33;;;;;;;6.95;2.70;;;;;;;19.60;100.00;100052.41;5116522;27;20032;-82
2023/08/28 07:56:58;;;;;;;3.92;2.47;;;;;;;19.54;100.00;100023.53;5114664;28;20024;-82
2023/08/28 07:59:24;;;;;;;5.28;3.00;;;;;;;19.69;100.00;100048.25;5114701;28;20023;-81
2023/08/28 08:01:49;;;;;;;4.55;2.20;;;;;;;19.71;100.00;100046.31;5115257;27;20031;-82
2023/08/28 08:04:14;;;;;;;5.07;3.03;;;;;;;19.73;100.00;100061.03;5116082;28;20024;-79
2023/08/28 08:06:40;;;;;;;4.82;2.75;;;;;;;19.79;100.00;100058.81;5116437;27;20035;-79
2023/08/28 08:09:05;;;;;;;5.55;2.70;;;;;;;19.75;100.00;100051.78;5115764;28;20012;-77
2023/08/28 08:11:32;;;;;;;10.63;2.67;;;;;;;19.78;100.00;100047.75;5114475;28;20039;-80
2023/08/28 08:13:57;;;;;;;5.10;2.88;;;;;;;19.73;100.00;100078.44;5116401;27;20379;-79
2023/08/28 08:16:23;;;;;;;2.67;2.20;;;;;;;19.72;100.00;100039.19;5116004;27;20471;-80
2023/08/28 08:18:48;;;;;;;5.97;2.67;;;;;;;19.68;100.00;99991.59;5116530;28;20027;-82
2023/08/28 08:21:15;;;;;;;5.65;2.80;;;;;;;19.78;100.00;99986.84;5115913;28;20039;-79
2023/08/28 08:23:41;;;;;;;3.40;2.88;;;;;;;19.84;100.00;99979.59;5115898;27;20024;-82
2023/08/28 08:26:06;;;;;;;4.88;2.72;;;;;;;19.94;100.00;99997.28;5113653;28;20073;-77
2023/08/28 08:28:32;;;;;;;4.82;2.85;;;;;;;20.17;100.00;100015.66;5115313;28;20016;-79
2023/08/28 08:30:57;;;;;;;5.85;2.85;;;;;;;20.38;100.00;100027.25;5115958;27;20493;-81
2023/08/28 08:33:23;;;;;;;8.23;2.83;;;;;;;20.53;100.00;100014.97;5116302;28;20023;-80
2023/08/28 08:35:48;;;;;;;4.65;2.47;;;;;;;20.66;100.00;100003.25;5114832;28;20112;-78
2023/08/28 08:38:13;;;;;;;5.88;2.95;;;;;;;20.60;100.00;99961.97;5113927;28;20079;-80
2023/08/28 08:40:40;;;;;;;4.00;3.28;;;;;;;20.71;100.00;99973.28;5116356;27;20035;-77
2023/08/28 08:43:05;;;;;;;4.07;3.20;;;;;;;20.69;100.00;99979.66;5115326;28;20039;-81
2023/08/28 08:45:34;;;;;;;7.13;4.32;;;;;;;20.66;100.00;99997.44;5114777;28;20197;-80
2023/08/28 08:48:00;;;;;;;6.45;2.90;;;;;;;20.63;100.00;99989.88;5114120;28;20039;-79
2023/08/28 08:50:27;;;;;;;4.90;2.83;;;;;;;20.67;100.00;99993.97;5115359;28;20038;-79
2023/08/28 08:52:55;;;;;;;3.95;2.70;;;;;;;20.60;100.00;99985.97;5114422;28;20032;-79
2023/08/28 08:55:29;;;;;;;4.43;3.10;;;;;;;20.47;100.00;99989.00;5113777;28;20064;-77
2023/08/28 08:57:58;;;;;;;4.72;3.65;;;;;;;20.20;100.00;99979.69;5114958;28;20035;-77
2023/08/28 09:00:25;;;;;;;5.30;2.90;;;;;;;20.08;100.00;99980.56;5120556;28;20106;-80
2023/08/28 09:02:51;;;;;;;5.55;2.58;;;;;;;20.08;100.00;99977.69;5110052;28;20027;-77
2023/08/28 09:05:17;;;;;;;5.18;3.20;;;;;;;20.14;100.00;99976.19;5109258;28;20046;-78
2023/08/28 09:07:44;;;;;;;4.55;3.00;;;;;;;20.04;100.00;99969.34;5122609;28;20031;-75
2023/08/28 09:10:10;;;;;;;4.82;3.80;;;;;;;19.89;100.00;99958.34;5116677;28;20023;-79
2023/08/28 09:12:35;;;;;;;6.57;3.40;;;;;;;19.91;100.00;99970.16;5116385;28;20111;-82
2023/08/28 09:15:02;;;;;;;6.07;3.63;;;;;;;19.84;100.00;99973.00;5117431;28;20057;-79
2023/08/28 09:17:28;;;;;;;5.88;3.55;;;;;;;19.81;100.00;99962.50;5116823;28;20468;-82
2023/08/28 09:19:53;;;;;;;6.78;3.67;;;;;;;19.97;100.00;99941.03;5116266;28;20090;-81
2023/08/28 09:22:25;;;;;;;4.32;3.92;;;;;;;20.31;100.00;99956.19;5114620;28;20042;-78
2023/08/28 09:24:52;;;;;;;9.57;4.65;;;;;;;20.53;100.00;99937.38;5115150;28;20039;-79
2023/08/28 09:27:18;;;;;;;5.15;3.97;;;;;;;20.79;100.00;99942.19;5096887;28;20110;-77
2023/08/28 09:29:43;;;;;;;6.43;4.40;;;;;;;20.97;100.00;99937.41;5115809;28;20027;-80
2023/08/28 09:32:09;;;;;;;5.40;3.92;;;;;;;21.22;100.00;99938.47;5115400;28;20046;-79
2023/08/28 09:34:39;;;;;;;4.57;4.13;;;;;;;21.63;100.00;99946.91;5115561;28;20441;-79
2023/08/28 09:37:09;;;;;;;7.55;4.78;;;;;;;21.99;100.00;99949.63;5115584;28;20054;-77
2023/08/28 09:39:37;;;;;;;9.88;4.72;;;;;;;22.20;100.00;99934.13;5113815;28;20051;-76
2023/08/28 09:42:05;;;;;;;6.93;4.82;;;;;;;22.22;100.00;99932.22;5114482;28;20028;-79
2023/08/28 09:44:34;;;;;;;6.55;4.30;;;;;;;22.18;100.00;99923.06;5113760;28;20106;-78
2023/08/28 09:46:59;;;;;;;5.10;4.60;;;;;;;22.18;100.00;99931.03;5116976;28;20565;-77
2023/08/28 09:49:25;;;;;;;6.38;5.10;;;;;;;22.07;100.00;99927.16;5113558;28;20024;-77
2023/08/28 09:51:51;;;;;;;9.75;5.07;;;;;;;21.99;100.00;99938.00;5114770;28;20417;-78
2023/08/28 09:54:16;;;;;;;8.00;5.22;;;;;;;21.96;100.00;99945.00;5111027;28;20035;-76
2023/08/28 09:56:43;;;;;;;7.30;5.60;;;;;;;21.89;100.00;99933.34;5113047;28;20031;-78
2023/08/28 09:59:10;;;;;;;6.38;5.63;;;;;;;21.92;100.00;99924.25;5112604;28;20066;-76
2023/08/28 10:01:37;;;;;;;6.25;5.00;;;;;;;21.89;100.00;99915.88;5112873;28;20039;-76
2023/08/28 10:04:10;;;;;;;11.13;6.05;;;;;;;21.90;100.00;99926.94;5116129;28;20029;-81
2023/08/28 10:06:38;;;;;;;6.13;5.53;;;;;;;21.88;100.00;99926.75;5114352;28;20043;-77
2023/08/28 10:09:05;;;;;;;11.13;6.00;;;;;;;21.72;100.00;99913.56;5096033;28;20551;-77
2023/08/28 10:11:42;;;;;;;6.60;5.85;;;;;;;21.64;100.00;99922.28;5113709;28;20038;-78
2023/08/28 10:14:08;;;;;;;10.05;6.28;;;;;;;21.55;100.00;99931.56;5113598;28;20034;-78
2023/08/28 10:16:41;;;;;;;10.43;6.28;;;;;;;21.45;100.00;99935.63;5115499;28;20031;-78
2023/08/28 10:19:27;;;;;;;6.57;5.88;;;;;;;21.28;100.00;99926.66;5114385;28;20024;-78
2023/08/28 10:21:53;;;;;;;8.98;6.78;;;;;;;21.11;100.00;99904.72;5096311;28;20392;-78
2023/08/28 10:24:19;;;;;;;7.40;6.68;;;;;;;21.16;100.00;99903.75;5113549;28;20032;-79
2023/08/28 10:26:46;;;;;;;9.68;6.32;;;;;;;21.12;100.00;99911.31;5113811;28;20106;-78
2023/08/28 10:29:12;;;;;;;8.05;6.63;;;;;;;21.11;100.00;99912.66;5116082;28;20053;-81
2023/08/28 10:31:38;;;;;;;8.93;6.15;;;;;;;21.14;100.00;99896.97;5113845;28;20027;-78
2023/08/28 10:34:08;;;;;;;8.13;5.90;;;;;;;21.22;100.00;99900.69;5115599;28;20020;-78
2023/08/28 10:36:34;;;;;;;8.90;5.97;;;;;;;21.25;100.00;99890.78;5113552;28;20048;-77
2023/08/28 10:39:03;;;;;;;10.80;6.72;;;;;;;21.39;100.00;99897.19;5113975;28;20054;-76
2023/08/28 10:41:30;;;;;;;8.18;6.45;;;;;;;21.40;100.00;99895.84;5116013;28;20145;-78
2023/08/28 10:43:56;;;;;;;6.63;6.03;;;;;;;21.32;100.00;99895.84;5116835;28;20050;-78
2023/08/28 10:46:22;;;;;;;8.10;7.28;;;;;;;21.37;100.00;99900.72;5100127;28;20023;-80
2023/08/28 10:48:49;;;;;;;7.00;6.30;;;;;;;21.46;100.00;99897.25;5115039;28;20027;-78
2023/08/28 10:51:15;;;;;;;7.05;6.28;;;;;;;21.64;100.00;99886.59;5115219;28;20110;-78
2023/08/28 10:53:41;;;;;;;10.02;5.75;;;;;;;21.90;100.00;99880.41;5116839;28;20769;-80
2023/08/28 10:56:06;;;;;;;7.63;5.65;;;;;;;22.05;100.00;99888.31;5114734;28;20031;-79
2023/08/28 10:58:36;;;;;;;6.43;5.47;;;;;;;22.16;100.00;99884.25;5114516;28;20062;-78
2023/08/28 11:01:18;;;;;;;6.53;5.40;;;;;;;22.31;100.00;99885.03;5114204;28;20032;-77
2023/08/28 11:03:57;;;;;;;8.68;5.95;;;;;;;22.49;100.00;99883.78;5114300;28;20480;-78
2023/08/28 11:06:42;;;;;;;8.73;5.72;;;;;;;22.58;100.00;99891.13;5114419;28;20019;-81
2023/08/28 11:09:26;;;;;;;6.80;5.63;;;;;;;22.67;100.00;99886.84;5115285;28;20024;-78
2023/08/28 11:11:51;;;;;;;7.95;6.60;;;;;;;22.64;100.00;99882.19;5117019;28;20031;-77
2023/08/28 11:14:16;;;;;;;7.75;6.55;;;;;;;22.66;100.00;99883.16;5114960;28;20050;-79
2023/08/28 11:16:43;;;;;;;9.85;6.60;;;;;;;22.77;100.00;99876.09;5116109;28;20107;-80
2023/08/28 11:19:08;;;;;;;10.95;6.90;;;;;;;22.96;100.00;99876.44;5115920;28;20035;-80
2023/08/28 11:21:42;;;;;;;11.48;6.43;;;;;;;23.13;100.00;99878.66;5115132;28;20046;-82
2023/08/28 11:24:26;;;;;;;6.20;5.15;;;;;;;23.25;100.00;99879.78;5113276;28;20416;-78